Bandon, OR

2:24 AM PDT on August 29, 2014 (GMT -0700)
KORBANDO2 | Change Station
CLOSE
Current Station
Personal Weather Station
Location: Bandon, OR
Elevation: 77 ft
Nearby Weather Stations

Elev 77 ft 43.12 °N, 124.43 °W | Updated 28 seconds ago

Fog
Fog
53.0 °F
Feels Like 53.0 °F
N
6.0
Wind Variable Wind from North
Gusts 6.0 mph

Today
High -- | Low -- °F
--% Chance of Precip.
Yesterday
High -- | Low -- °F
Precip. -- in
6:38 AM 7:57 PM
Waxing Crescent, 13% visible
Pressure 30.05 in
Visibility 1.0 miles
Clouds Overcast 300 ft
Dew Point Not available.
Humidity Not available.
Rainfall 0.00 in
Snow Depth Not available.
UV 0 out of 12
Pollen 3.50 out of 12
Air Quality Not available.
Flu Activity Not available.
METAR KOTH 290915Z 28004KT 1SM OVC003 14/14 A3005 RMK AO1

More Conditions Fewer Conditions

Pressure 30.05 in
Visibility 1.0 miles
Clouds Overcast 300 ft
Dew Point Not available.
Humidity Not available.
Rainfall 0.00 in
Snow Depth Not available.
UV 0 out of 12
Pollen 3.50 out of 12
Air Quality Not available.
Flu Activity Not available.
METAR KOTH 290915Z 28004KT 1SM OVC003 14/14 A3005 RMK AO1

More Conditions Fewer Conditions

10-Day Weather Forecast

Almanac

Astronomy

Aug. 29, 2014 Rise Set
Actual Time 6:38 AM PDT 7:57 PM PDT
Civil Twilight 6:09 AM PDT 8:26 PM PDT
Nautical Twilight 5:33 AM PDT 9:02 PM PDT
Astronomical Twilight 4:56 AM PDT 9:39 PM PDT
Moon 10:41 AM PDT 9:50 PM PDT
Length of Visible Light 14h 17m
Length of Day
13h 18m
Tomorrow will be 2m 48s shorter.
Waxing Crescent, 13% of the Moon is Illuminated
Today
Waxing Crescent
Sep 2
First Quarter
Sep 8
Full
Sep 15
Last Quarter
Sep 24
New

Today's Extremes

State Highs State Lows

Community

WunderPhotos

Upload Photos

1,748,203 photos uploaded!

Nearby

Snow Depth

Station Depth Elevation
Bigelow Camp 1 in 5120 ft
Holland Meadows 0 in 4900 ft
Fish Lake 0 in 4665 ft
Annie Springs 0 in 6020 ft
Diamond Lake 1 in 5315 ft

Earthquake Activity

City Distance Mag. Time & Date
No recent earthquake activity has been reported nearby.
Minimum magnitude displayed is 2.5.

Coastal Water Temperatures

Place Temperature
Port Orford, OR 52.0 °F
Charleston, OR 53.1 °F
South Beach, OR 52.0 °F

Nearby Weather Stations